sensor_id;sensor_type;location;lat;lon;timestamp;pressure;altitude;pressure_sealevel;temperature;humidity
17615;BME280;8926;49.720;6.576;2023-02-18T00:00:08;100669.84;;;12.02;86.83
17615;BME280;8926;49.720;6.576;2023-02-18T00:02:35;100670.84;;;12.00;87.03
17615;BME280;8926;49.720;6.576;2023-02-18T00:05:00;100661.22;;;12.00;87.80
17615;BME280;8926;49.720;6.576;2023-02-18T00:07:26;100656.75;;;12.02;87.06
17615;BME280;8926;49.720;6.576;2023-02-18T00:09:51;100656.84;;;12.01;87.02
17615;BME280;8926;49.720;6.576;2023-02-18T00:12:16;100654.28;;;11.99;86.98
17615;BME280;8926;49.720;6.576;2023-02-18T00:14:42;100657.16;;;11.95;86.90
17615;BME280;8926;49.720;6.576;2023-02-18T00:17:07;100662.47;;;11.93;87.38
17615;BME280;8926;49.720;6.576;2023-02-18T00:19:32;100668.63;;;11.92;87.33
17615;BME280;8926;49.720;6.576;2023-02-18T00:21:57;100657.44;;;11.88;87.94
17615;BME280;8926;49.720;6.576;2023-02-18T00:24:23;100656.50;;;11.89;87.87
17615;BME280;8926;49.720;6.576;2023-02-18T00:26:50;100658.28;;;11.89;87.87
17615;BME280;8926;49.720;6.576;2023-02-18T00:29:16;100656.59;;;11.88;88.29
17615;BME280;8926;49.720;6.576;2023-02-18T00:31:42;100650.50;;;11.87;88.02
17615;BME280;8926;49.720;6.576;2023-02-18T00:34:09;100665.34;;;11.87;88.51
17615;BME280;8926;49.720;6.576;2023-02-18T00:36:35;100667.19;;;11.85;89.00
17615;BME280;8926;49.720;6.576;2023-02-18T00:39:05;100662.81;;;11.85;88.48
17615;BME280;8926;49.720;6.576;2023-02-18T00:41:32;100660.13;;;11.87;88.93
17615;BME280;8926;49.720;6.576;2023-02-18T00:43:57;100661.59;;;11.93;88.41
17615;BME280;8926;49.720;6.576;2023-02-18T00:46:24;100660.13;;;11.87;88.09
17615;BME280;8926;49.720;6.576;2023-02-18T00:48:49;100668.63;;;11.92;88.10
17615;BME280;8926;49.720;6.576;2023-02-18T00:51:15;100672.28;;;11.88;88.12
17615;BME280;8926;49.720;6.576;2023-02-18T00:53:41;100666.41;;;11.83;88.18
17615;BME280;8926;49.720;6.576;2023-02-18T00:56:06;100662.88;;;11.84;88.09
17615;BME280;8926;49.720;6.576;2023-02-18T00:58:33;100661.25;;;11.81;88.22
17615;BME280;8926;49.720;6.576;2023-02-18T01:00:58;100661.25;;;11.81;88.14
17615;BME280;8926;49.720;6.576;2023-02-18T01:03:24;100664.84;;;11.79;87.95
17615;BME280;8926;49.720;6.576;2023-02-18T01:05:50;100663.16;;;11.78;88.51
17615;BME280;8926;49.720;6.576;2023-02-18T01:08:16;100668.41;;;11.78;88.41
17615;BME280;8926;49.720;6.576;2023-02-18T01:10:45;100667.59;;;11.76;88.40
17615;BME280;8926;49.720;6.576;2023-02-18T01:13:12;100666.69;;;11.77;88.41
17615;BME280;8926;49.720;6.576;2023-02-18T01:15:38;100663.22;;;11.76;88.15
17615;BME280;8926;49.720;6.576;2023-02-18T01:18:04;100670.34;;;11.73;88.32
17615;BME280;8926;49.720;6.576;2023-02-18T01:20:29;100663.41;;;11.72;88.18
17615;BME280;8926;49.720;6.576;2023-02-18T01:22:55;100669.44;;;11.74;88.53
17615;BME280;8926;49.720;6.576;2023-02-18T01:25:20;100664.97;;;11.76;88.38
17615;BME280;8926;49.720;6.576;2023-02-18T01:27:45;100658.16;;;11.72;88.72
17615;BME280;8926;49.720;6.576;2023-02-18T01:30:14;100657.41;;;11.70;88.70
17615;BME280;8926;49.720;6.576;2023-02-18T01:32:40;100650.31;;;11.72;88.52
17615;BME280;8926;49.720;6.576;2023-02-18T01:35:06;100645.25;;;11.69;88.67
17615;BME280;8926;49.720;6.576;2023-02-18T01:37:32;100636.75;;;11.64;88.79
17615;BME280;8926;49.720;6.576;2023-02-18T01:39:57;100626.28;;;11.64;88.99
17615;BME280;8926;49.720;6.576;2023-02-18T01:42:26;100628.00;;;11.65;88.81
17615;BME280;8926;49.720;6.576;2023-02-18T01:44:52;100624.47;;;11.66;88.99
17615;BME280;8926;49.720;6.576;2023-02-18T01:47:18;100624.47;;;11.66;88.76
17615;BME280;8926;49.720;6.576;2023-02-18T01:49:45;100620.16;;;11.65;88.54
17615;BME280;8926;49.720;6.576;2023-02-18T01:52:15;100618.50;;;11.62;88.34
17615;BME280;8926;49.720;6.576;2023-02-18T01:54:47;100619.50;;;11.60;88.56
17615;BME280;8926;49.720;6.576;2023-02-18T01:57:17;100617.09;;;11.55;88.73
17615;BME280;8926;49.720;6.576;2023-02-18T01:59:48;100618.88;;;11.54;89.18
17615;BME280;8926;49.720;6.576;2023-02-18T02:02:17;100609.31;;;11.53;88.96
17615;BME280;8926;49.720;6.576;2023-02-18T02:04:43;100605.22;;;11.48;89.12
17615;BME280;8926;49.720;6.576;2023-02-18T02:07:09;100601.75;;;11.47;89.12
17615;BME280;8926;49.720;6.576;2023-02-18T02:09:35;100600.81;;;11.48;89.11
17615;BME280;8926;49.720;6.576;2023-02-18T02:23:19;100603.44;;;11.48;88.96
17615;BME280;8926;49.720;6.576;2023-02-18T02:37:06;100564.34;;;11.45;88.39
17615;BME280;8926;49.720;6.576;2023-02-18T02:39:42;100569.56;;;11.45;88.01
17615;BME280;8926;49.720;6.576;2023-02-18T02:47:56;100571.72;;;11.37;88.39
17615;BME280;8926;49.720;6.576;2023-02-18T02:53:03;100572.44;;;11.41;88.33
17615;BME280;8926;49.720;6.576;2023-02-18T02:55:30;100572.56;;;11.38;88.18
17615;BME280;8926;49.720;6.576;2023-02-18T02:57:55;100578.78;;;11.35;88.53
17615;BME280;8926;49.720;6.576;2023-02-18T03:03:42;100579.06;;;11.29;88.68
17615;BME280;8926;49.720;6.576;2023-02-18T03:09:21;100574.63;;;11.31;88.42
17615;BME280;8926;49.720;6.576;2023-02-18T03:11:59;100582.47;;;11.31;88.61
17615;BME280;8926;49.720;6.576;2023-02-18T03:14:29;100575.53;;;11.30;88.80
17615;BME280;8926;49.720;6.576;2023-02-18T03:19:34;100570.94;;;11.35;88.98
17615;BME280;8926;49.720;6.576;2023-02-18T03:22:09;100575.53;;;11.30;88.87
17615;BME280;8926;49.720;6.576;2023-02-18T03:24:44;100559.91;;;11.29;89.16
17615;BME280;8926;49.720;6.576;2023-02-18T03:27:15;100560.91;;;11.26;89.22
17615;BME280;8926;49.720;6.576;2023-02-18T03:29:44;100552.28;;;11.24;89.76
17615;BME280;8926;49.720;6.576;2023-02-18T03:32:13;100556.59;;;11.25;89.78
17615;BME280;8926;49.720;6.576;2023-02-18T03:34:43;100549.94;;;11.18;90.06
17615;BME280;8926;49.720;6.576;2023-02-18T03:37:12;100552.53;;;11.18;89.92
17615;BME280;8926;49.720;6.576;2023-02-18T03:39:41;100558.72;;;11.17;90.05
17615;BME280;8926;49.720;6.576;2023-02-18T03:42:08;100565.63;;;11.18;89.94
17615;BME280;8926;49.720;6.576;2023-02-18T03:44:33;100549.00;;;11.19;89.60
17615;BME280;8926;49.720;6.576;2023-02-18T03:46:59;100535.03;;;11.20;89.32
17615;BME280;8926;49.720;6.576;2023-02-18T03:49:24;100524.56;;;11.20;88.84
17615;BME280;8926;49.720;6.576;2023-02-18T03:51:50;100528.94;;;11.19;88.54
17615;BME280;8926;49.720;6.576;2023-02-18T03:54:15;100541.34;;;11.16;88.05
17615;BME280;8926;49.720;6.576;2023-02-18T03:56:40;100550.25;;;11.12;88.09
17615;BME280;8926;49.720;6.576;2023-02-18T03:59:06;100557.78;;;11.18;88.43
17615;BME280;8926;49.720;6.576;2023-02-18T04:01:32;100542.88;;;11.20;86.76
17615;BME280;8926;49.720;6.576;2023-02-18T04:03:57;100535.94;;;11.19;86.85
17615;BME280;8926;49.720;6.576;2023-02-18T04:06:23;100539.47;;;11.18;86.72
17615;BME280;8926;49.720;6.576;2023-02-18T04:08:48;100531.72;;;11.16;85.47
17615;BME280;8926;49.720;6.576;2023-02-18T04:11:14;100541.34;;;11.16;85.53
17615;BME280;8926;49.720;6.576;2023-02-18T04:13:39;100539.47;;;11.18;85.10
17615;BME280;8926;49.720;6.576;2023-02-18T04:16:05;100541.34;;;11.16;84.93
17615;BME280;8926;49.720;6.576;2023-02-18T04:18:30;100537.63;;;11.20;84.74
17615;BME280;8926;49.720;6.576;2023-02-18T04:20:56;100535.94;;;11.19;84.27
17615;BME280;8926;49.720;6.576;2023-02-18T04:23:21;100535.94;;;11.19;84.13
17615;BME280;8926;49.720;6.576;2023-02-18T04:25:46;100544.56;;;11.21;84.40
17615;BME280;8926;49.720;6.576;2023-02-18T04:28:13;100537.34;;;11.26;84.58
17615;BME280;8926;49.720;6.576;2023-02-18T04:30:39;100529.44;;;11.28;83.04
17615;BME280;8926;49.720;6.576;2023-02-18T04:33:05;100522.38;;;11.30;82.95
17615;BME280;8926;49.720;6.576;2023-02-18T04:35:30;100535.78;;;11.22;81.66
17615;BME280;8926;49.720;6.576;2023-02-18T04:37:55;100537.63;;;11.20;82.28
17615;BME280;8926;49.720;6.576;2023-02-18T04:40:20;100527.03;;;11.23;81.61
17615;BME280;8926;49.720;6.576;2023-02-18T04:42:46;100521.72;;;11.25;80.87
17615;BME280;8926;49.720;6.576;2023-02-18T04:45:11;100527.75;;;11.27;81.32
17615;BME280;8926;49.720;6.576;2023-02-18T04:47:36;100526.03;;;11.26;80.42
17615;BME280;8926;49.720;6.576;2023-02-18T04:50:02;100533.19;;;11.22;80.08
17615;BME280;8926;49.720;6.576;2023-02-18T04:52:28;100541.81;;;11.24;79.76
17615;BME280;8926;49.720;6.576;2023-02-18T04:54:53;100533.03;;;11.25;79.54
17615;BME280;8926;49.720;6.576;2023-02-18T04:57:18;100529.72;;;11.21;79.04
17615;BME280;8926;49.720;6.576;2023-02-18T04:59:44;100530.44;;;11.25;79.48
17615;BME280;8926;49.720;6.576;2023-02-18T05:02:09;100539.19;;;11.24;78.46
17615;BME280;8926;49.720;6.576;2023-02-18T05:04:34;100542.72;;;11.23;77.92
17615;BME280;8926;49.720;6.576;2023-02-18T05:07:00;100544.69;;;11.18;78.59
17615;BME280;8926;49.720;6.576;2023-02-18T05:09:25;100531.63;;;11.18;77.58
17615;BME280;8926;49.720;6.576;2023-02-18T05:11:50;100542.09;;;11.18;77.31
17615;BME280;8926;49.720;6.576;2023-02-18T05:14:17;100553.50;;;11.17;76.36
17615;BME280;8926;49.720;6.576;2023-02-18T05:16:42;100542.88;;;11.20;76.47
17615;BME280;8926;49.720;6.576;2023-02-18T05:19:09;100546.41;;;11.19;76.20
17615;BME280;8926;49.720;6.576;2023-02-18T05:21:37;100541.16;;;11.19;76.22
17615;BME280;8926;49.720;6.576;2023-02-18T05:24:03;100537.63;;;11.20;76.46
17615;BME280;8926;49.720;6.576;2023-02-18T05:26:28;100553.31;;;11.20;76.50
17615;BME280;8926;49.720;6.576;2023-02-18T05:28:53;100539.34;;;11.21;76.61
17615;BME280;8926;49.720;6.576;2023-02-18T05:31:19;100530.56;;;11.22;76.13
17615;BME280;8926;49.720;6.576;2023-02-18T05:33:44;100546.25;;;11.22;76.42
17615;BME280;8926;49.720;6.576;2023-02-18T05:36:09;100541.75;;;11.26;76.60
17615;BME280;8926;49.720;6.576;2023-02-18T05:38:35;100526.91;;;11.26;76.70
17615;BME280;8926;49.720;6.576;2023-02-18T05:41:01;100523.34;;;11.27;76.74
17615;BME280;8926;49.720;6.576;2023-02-18T05:43:26;100528.59;;;11.27;76.60
17615;BME280;8926;49.720;6.576;2023-02-18T05:45:51;100530.28;;;11.28;75.97
17615;BME280;8926;49.720;6.576;2023-02-18T05:48:16;100515.44;;;11.29;75.78
17615;BME280;8926;49.720;6.576;2023-02-18T05:50:42;100514.59;;;11.28;76.08
17615;BME280;8926;49.720;6.576;2023-02-18T05:53:07;100500.75;;;11.26;75.51
17615;BME280;8926;49.720;6.576;2023-02-18T05:55:32;100503.50;;;11.23;76.06
17615;BME280;8926;49.720;6.576;2023-02-18T05:58:03;100507.16;;;11.19;75.70
17615;BME280;8926;49.720;6.576;2023-02-18T06:00:28;100495.97;;;11.17;75.71
17615;BME280;8926;49.720;6.576;2023-02-18T06:02:54;100495.13;;;11.16;75.84
17615;BME280;8926;49.720;6.576;2023-02-18T06:05:20;100491.41;;;11.20;76.58
17615;BME280;8926;49.720;6.576;2023-02-18T06:07:46;100484.47;;;11.19;75.58
17615;BME280;8926;49.720;6.576;2023-02-18T06:10:11;100489.63;;;11.21;75.83
17615;BME280;8926;49.720;6.576;2023-02-18T06:12:37;100492.56;;;11.15;76.25
17615;BME280;8926;49.720;6.576;2023-02-18T06:15:02;100493.84;;;11.06;76.11
17615;BME280;8926;49.720;6.576;2023-02-18T06:17:28;100478.44;;;11.00;76.18
17615;BME280;8926;49.720;6.576;2023-02-18T06:19:53;100494.69;;;11.07;75.56
17615;BME280;8926;49.720;6.576;2023-02-18T06:22:18;100484.28;;;11.05;75.71
17615;BME280;8926;49.720;6.576;2023-02-18T06:24:44;100481.63;;;11.07;75.86
17615;BME280;8926;49.720;6.576;2023-02-18T06:27:09;100486.06;;;11.05;75.64
17615;BME280;8926;49.720;6.576;2023-02-18T06:29:34;100482.66;;;11.03;75.36
17615;BME280;8926;49.720;6.576;2023-02-18T06:32:01;100488.88;;;11.00;75.42
17615;BME280;8926;49.720;6.576;2023-02-18T06:34:26;100478.44;;;11.00;75.49
17615;BME280;8926;49.720;6.576;2023-02-18T06:36:52;100486.19;;;11.02;75.65
17615;BME280;8926;49.720;6.576;2023-02-18T06:39:17;100472.34;;;11.00;76.01
17615;BME280;8926;49.720;6.576;2023-02-18T06:41:42;100475.75;;;11.02;75.98
17615;BME280;8926;49.720;6.576;2023-02-18T06:44:08;100477.44;;;11.03;75.29
17615;BME280;8926;49.720;6.576;2023-02-18T06:46:33;100477.44;;;11.03;75.60
17615;BME280;8926;49.720;6.576;2023-02-18T06:48:58;100480.97;;;11.02;75.63
17615;BME280;8926;49.720;6.576;2023-02-18T06:51:24;100482.94;;;10.97;75.55
17615;BME280;8926;49.720;6.576;2023-02-18T06:53:49;100477.72;;;10.97;75.60
17615;BME280;8926;49.720;6.576;2023-02-18T06:56:15;100485.34;;;11.01;75.68
17615;BME280;8926;49.720;6.576;2023-02-18T06:58:40;100494.81;;;11.04;75.65
17615;BME280;8926;49.720;6.576;2023-02-18T07:01:06;100489.47;;;11.07;75.47
17615;BME280;8926;49.720;6.576;2023-02-18T07:03:31;100482.53;;;11.06;75.62
17615;BME280;8926;49.720;6.576;2023-02-18T07:05:56;100479.28;;;11.01;75.46
17615;BME280;8926;49.720;6.576;2023-02-18T07:08:22;100491.56;;;10.99;75.07
17615;BME280;8926;49.720;6.576;2023-02-18T07:10:47;100492.34;;;11.01;75.31
17615;BME280;8926;49.720;6.576;2023-02-18T07:13:13;100498.34;;;11.03;75.73
17615;BME280;8926;49.720;6.576;2023-02-18T07:15:39;100494.81;;;11.04;75.55
17615;BME280;8926;49.720;6.576;2023-02-18T07:18:04;100491.16;;;11.08;74.90
17615;BME280;8926;49.720;6.576;2023-02-18T07:20:29;100494.81;;;11.04;75.02
17615;BME280;8926;49.720;6.576;2023-02-18T07:22:55;100490.44;;;11.04;75.38
17615;BME280;8926;49.720;6.576;2023-02-18T07:25:21;100498.22;;;11.06;75.52
17615;BME280;8926;49.720;6.576;2023-02-18T07:27:46;100493.00;;;11.06;75.01
17615;BME280;8926;49.720;6.576;2023-02-18T07:30:12;100500.56;;;11.12;75.18
17615;BME280;8926;49.720;6.576;2023-02-18T07:32:38;100494.69;;;11.07;75.32
17615;BME280;8926;49.720;6.576;2023-02-18T07:35:04;100496.25;;;11.11;75.08
17615;BME280;8926;49.720;6.576;2023-02-18T07:37:30;100485.78;;;11.11;74.78
17615;BME280;8926;49.720;6.576;2023-02-18T07:39:56;100485.78;;;11.11;74.61
17615;BME280;8926;49.720;6.576;2023-02-18T07:42:21;100471.00;;;11.10;74.13
17615;BME280;8926;49.720;6.576;2023-02-18T07:44:47;100483.09;;;11.12;73.93
17615;BME280;8926;49.720;6.576;2023-02-18T07:47:14;100475.31;;;11.11;73.40
17615;BME280;8926;49.720;6.576;2023-02-18T07:49:39;100478.72;;;11.13;73.40
17615;BME280;8926;49.720;6.576;2023-02-18T07:52:05;100486.41;;;11.16;73.04
17615;BME280;8926;49.720;6.576;2023-02-18T07:54:30;100485.66;;;11.14;73.36
17615;BME280;8926;49.720;6.576;2023-02-18T07:56:55;100482.03;;;11.16;72.88
17615;BME280;8926;49.720;6.576;2023-02-18T07:59:21;100480.34;;;11.15;72.79
17615;BME280;8926;49.720;6.576;2023-02-18T08:01:46;100467.28;;;11.15;72.54
17615;BME280;8926;49.720;6.576;2023-02-18T08:04:11;100473.34;;;11.16;72.27
17615;BME280;8926;49.720;6.576;2023-02-18T08:06:43;100458.50;;;11.16;71.97
17615;BME280;8926;49.720;6.576;2023-02-18T08:09:10;100468.13;;;11.16;72.12
17615;BME280;8926;49.720;6.576;2023-02-18T08:11:36;100458.56;;;11.15;72.54
17615;BME280;8926;49.720;6.576;2023-02-18T08:14:01;100469.81;;;11.17;72.59
17615;BME280;8926;49.720;6.576;2023-02-18T08:16:26;100469.63;;;11.20;72.48
17615;BME280;8926;49.720;6.576;2023-02-18T08:18:52;100476.50;;;11.22;72.49
17615;BME280;8926;49.720;6.576;2023-02-18T08:21:20;100479.19;;;11.21;72.10
17615;BME280;8926;49.720;6.576;2023-02-18T08:23:46;100493.94;;;11.22;72.02
17615;BME280;8926;49.720;6.576;2023-02-18T08:26:11;100499.13;;;11.23;72.11
17615;BME280;8926;49.720;6.576;2023-02-18T08:28:37;100502.56;;;11.24;72.03
17615;BME280;8926;49.720;6.576;2023-02-18T08:31:03;100517.22;;;11.28;72.27
17615;BME280;8926;49.720;6.576;2023-02-18T08:33:29;100514.31;;;11.34;72.20
17615;BME280;8926;49.720;6.576;2023-02-18T08:35:55;100514.16;;;11.37;72.44
17615;BME280;8926;49.720;6.576;2023-02-18T08:38:22;100512.75;;;11.30;72.31
17615;BME280;8926;49.720;6.576;2023-02-18T08:40:47;100524.91;;;11.31;72.32
17615;BME280;8926;49.720;6.576;2023-02-18T08:43:14;100523.34;;;11.27;71.94
17615;BME280;8926;49.720;6.576;2023-02-18T08:45:40;100521.38;;;11.32;72.27
17615;BME280;8926;49.720;6.576;2023-02-18T08:48:07;100524.63;;;11.37;72.44
17615;BME280;8926;49.720;6.576;2023-02-18T08:50:33;100528.31;;;11.33;72.03
17615;BME280;8926;49.720;6.576;2023-02-18T08:52:59;100517.84;;;11.33;72.22
17615;BME280;8926;49.720;6.576;2023-02-18T08:55:27;100523.06;;;11.33;72.36
17615;BME280;8926;49.720;6.576;2023-02-18T08:57:53;100525.63;;;11.35;71.59
17615;BME280;8926;49.720;6.576;2023-02-18T09:00:18;100523.22;;;11.30;71.79
17615;BME280;8926;49.720;6.576;2023-02-18T09:02:44;100520.59;;;11.30;71.70
17615;BME280;8926;49.720;6.576;2023-02-18T09:05:09;100521.66;;;11.26;71.32
17615;BME280;8926;49.720;6.576;2023-02-18T09:07:35;100521.66;;;11.26;71.30
17615;BME280;8926;49.720;6.576;2023-02-18T09:10:01;100534.59;;;11.29;71.86
17615;BME280;8926;49.720;6.576;2023-02-18T09:12:27;100531.69;;;11.35;71.47
17615;BME280;8926;49.720;6.576;2023-02-18T09:14:52;100533.53;;;11.33;71.69
17615;BME280;8926;49.720;6.576;2023-02-18T09:17:18;100527.31;;;11.36;71.76
17615;BME280;8926;49.720;6.576;2023-02-18T09:19:43;100531.84;;;11.32;72.03
17615;BME280;8926;49.720;6.576;2023-02-18T09:22:09;100535.22;;;11.34;72.03
17615;BME280;8926;49.720;6.576;2023-02-18T09:24:38;100533.69;;;11.30;72.29
17615;BME280;8926;49.720;6.576;2023-02-18T09:27:03;100539.19;;;11.24;72.78
17615;BME280;8926;49.720;6.576;2023-02-18T09:29:29;100540.88;;;11.25;72.75
17615;BME280;8926;49.720;6.576;2023-02-18T09:31:54;100526.75;;;11.29;72.67
17615;BME280;8926;49.720;6.576;2023-02-18T09:34:19;100526.75;;;11.29;72.42
17615;BME280;8926;49.720;6.576;2023-02-18T09:36:45;100525.06;;;11.28;71.96
17615;BME280;8926;49.720;6.576;2023-02-18T09:39:10;100528.31;;;11.33;71.57
17615;BME280;8926;49.720;6.576;2023-02-18T09:42:10;100532.56;;;11.36;71.23
17615;BME280;8926;49.720;6.576;2023-02-18T09:44:41;100519.41;;;11.37;71.40
17615;BME280;8926;49.720;6.576;2023-02-18T09:47:25;100528.94;;;11.38;70.47
17615;BME280;8926;49.720;6.576;2023-02-18T09:49:58;100539.41;;;11.38;70.58
17615;BME280;8926;49.720;6.576;2023-02-18T09:52:31;100543.59;;;11.42;70.05
17615;BME280;8926;49.720;6.576;2023-02-18T09:54:57;100528.47;;;11.47;70.40
17615;BME280;8926;49.720;6.576;2023-02-18T09:57:39;100529.25;;;11.49;70.19
17615;BME280;8926;49.720;6.576;2023-02-18T10:00:13;100540.44;;;11.53;70.70
17615;BME280;8926;49.720;6.576;2023-02-18T10:02:44;100543.81;;;11.55;69.93
17615;BME280;8926;49.720;6.576;2023-02-18T10:05:15;100545.25;;;11.62;69.96
17615;BME280;8926;49.720;6.576;2023-02-18T10:07:40;100547.72;;;11.65;69.91
17615;BME280;8926;49.720;6.576;2023-02-18T10:10:33;100544.53;;;11.59;69.38
17615;BME280;8926;49.720;6.576;2023-02-18T10:13:00;100535.91;;;11.56;69.47
17615;BME280;8926;49.720;6.576;2023-02-18T10:15:28;100542.84;;;11.57;69.64
17615;BME280;8926;49.720;6.576;2023-02-18T10:17:56;100539.31;;;11.59;69.93
17615;BME280;8926;49.720;6.576;2023-02-18T10:20:24;100528.81;;;11.59;70.21
17615;BME280;8926;49.720;6.576;2023-02-18T10:22:53;100537.59;;;11.57;70.39
17615;BME280;8926;49.720;6.576;2023-02-18T10:25:21;100539.16;;;11.62;69.60
17615;BME280;8926;49.720;6.576;2023-02-18T10:27:49;100536.31;;;11.66;69.79
17615;BME280;8926;49.720;6.576;2023-02-18T10:30:26;100535.31;;;11.69;69.60
17615;BME280;8926;49.720;6.576;2023-02-18T10:35:53;100545.47;;;11.75;70.27
17615;BME280;8926;49.720;6.576;2023-02-18T10:43:49;100534.88;;;11.78;69.98
17615;BME280;8926;49.720;6.576;2023-02-18T10:49:03;100538.44;;;11.77;70.06
17615;BME280;8926;49.720;6.576;2023-02-18T10:51:36;100533.97;;;11.79;69.78
17615;BME280;8926;49.720;6.576;2023-02-18T10:54:05;100539.19;;;11.79;70.31
17615;BME280;8926;49.720;6.576;2023-02-18T10:56:49;100550.84;;;11.72;70.12
17615;BME280;8926;49.720;6.576;2023-02-18T11:01:55;100540.47;;;11.70;70.03
17615;BME280;8926;49.720;6.576;2023-02-18T11:04:25;100536.31;;;11.66;70.39
17615;BME280;8926;49.720;6.576;2023-02-18T11:06:52;100534.06;;;11.59;70.60
17615;BME280;8926;49.720;6.576;2023-02-18T11:12:05;100529.59;;;11.61;71.00
17615;BME280;8926;49.720;6.576;2023-02-18T11:14:40;100521.75;;;11.61;70.90
17615;BME280;8926;49.720;6.576;2023-02-18T11:17:29;100527.97;;;11.58;70.87
17615;BME280;8926;49.720;6.576;2023-02-18T11:20:00;100521.91;;;11.57;71.36
17615;BME280;8926;49.720;6.576;2023-02-18T11:22:34;100527.00;;;11.61;71.15
17615;BME280;8926;49.720;6.576;2023-02-18T11:25:18;100510.59;;;11.57;70.73
17615;BME280;8926;49.720;6.576;2023-02-18T11:27:47;100517.38;;;11.61;71.04
17615;BME280;8926;49.720;6.576;2023-02-18T11:30:22;100515.38;;;11.66;72.10
17615;BME280;8926;49.720;6.576;2023-02-18T11:32:49;100505.91;;;11.64;70.67
17615;BME280;8926;49.720;6.576;2023-02-18T11:35:26;100516.22;;;11.67;71.28
17615;BME280;8926;49.720;6.576;2023-02-18T11:37:53;100517.06;;;11.67;71.65
17615;BME280;8926;49.720;6.576;2023-02-18T11:40:22;100510.53;;;11.76;71.82
17615;BME280;8926;49.720;6.576;2023-02-18T11:42:48;100512.09;;;11.80;71.59
17615;BME280;8926;49.720;6.576;2023-02-18T11:45:28;100508.06;;;11.73;71.26
17615;BME280;8926;49.720;6.576;2023-02-18T11:48:14;100508.81;;;11.75;71.47
17615;BME280;8926;49.720;6.576;2023-02-18T11:50:40;100506.53;;;11.69;71.50
17615;BME280;8926;49.720;6.576;2023-02-18T11:55:55;100495.13;;;11.70;71.36
17615;BME280;8926;49.720;6.576;2023-02-18T11:58:21;100491.69;;;11.69;71.70
17615;BME280;8926;49.720;6.576;2023-02-18T12:00:47;100483.72;;;11.71;71.29
17615;BME280;8926;49.720;6.576;2023-02-18T12:05:50;100474.66;;;11.61;72.10
17615;BME280;8926;49.720;6.576;2023-02-18T12:08:32;100473.03;;;11.58;71.90
17615;BME280;8926;49.720;6.576;2023-02-18T12:11:03;100476.56;;;11.57;72.29
17615;BME280;8926;49.720;6.576;2023-02-18T12:16:34;100478.75;;;11.66;72.19
17615;BME280;8926;49.720;6.576;2023-02-18T12:22:17;100482.03;;;11.70;72.13
17615;BME280;8926;49.720;6.576;2023-02-18T12:25:20;100470.47;;;11.56;72.35
17615;BME280;8926;49.720;6.576;2023-02-18T12:33:10;100461.09;;;11.52;72.62
17615;BME280;8926;49.720;6.576;2023-02-18T12:35:51;100464.63;;;11.51;72.39
17615;BME280;8926;49.720;6.576;2023-02-18T12:38:25;100462.94;;;11.50;72.54
17615;BME280;8926;49.720;6.576;2023-02-18T12:49:41;100447.38;;;11.47;72.96
17615;BME280;8926;49.720;6.576;2023-02-18T12:55:26;100441.22;;;11.48;73.23
17615;BME280;8926;49.720;6.576;2023-02-18T13:06:51;100438.59;;;11.48;73.04
17615;BME280;8926;49.720;6.576;2023-02-18T13:09:43;100440.44;;;11.46;73.17
17615;BME280;8926;49.720;6.576;2023-02-18T13:14:48;100432.59;;;11.46;72.98
17615;BME280;8926;49.720;6.576;2023-02-18T13:17:16;100426.44;;;11.47;73.33
17615;BME280;8926;49.720;6.576;2023-02-18T13:19:51;100442.00;;;11.50;73.53
17615;BME280;8926;49.720;6.576;2023-02-18T13:22:22;100430.59;;;11.51;73.13
17615;BME280;8926;49.720;6.576;2023-02-18T13:24:49;100436.91;;;11.47;73.20
17615;BME280;8926;49.720;6.576;2023-02-18T13:27:24;100433.53;;;11.45;73.40
17615;BME280;8926;49.720;6.576;2023-02-18T13:30:22;100426.28;;;11.50;73.15
17615;BME280;8926;49.720;6.576;2023-02-18T13:35:22;100413.69;;;11.41;73.38
17615;BME280;8926;49.720;6.576;2023-02-18T13:38:08;100421.34;;;11.44;73.65
17615;BME280;8926;49.720;6.576;2023-02-18T13:40:37;100415.91;;;11.49;73.56
17615;BME280;8926;49.720;6.576;2023-02-18T13:46:07;100418.00;;;11.42;74.88
17615;BME280;8926;49.720;6.576;2023-02-18T13:51:04;100413.63;;;11.43;74.89
17615;BME280;8926;49.720;6.576;2023-02-18T13:53:34;100421.34;;;11.44;74.65
17615;BME280;8926;49.720;6.576;2023-02-18T13:58:54;100397.66;;;11.47;74.68
17615;BME280;8926;49.720;6.576;2023-02-18T14:01:24;100395.19;;;11.44;74.36
17615;BME280;8926;49.720;6.576;2023-02-18T14:03:59;100404.16;;;11.40;74.77
17615;BME280;8926;49.720;6.576;2023-02-18T14:11:47;100414.44;;;11.43;74.83
17615;BME280;8926;49.720;6.576;2023-02-18T14:19:42;100398.91;;;11.40;75.15
17615;BME280;8926;49.720;6.576;2023-02-18T14:24:59;100396.75;;;11.48;74.69
17615;BME280;8926;49.720;6.576;2023-02-18T14:27:26;100390.81;;;11.45;74.60
17615;BME280;8926;49.720;6.576;2023-02-18T14:29:51;100396.22;;;11.42;74.67
17615;BME280;8926;49.720;6.576;2023-02-18T14:32:19;100396.88;;;11.45;74.74
17615;BME280;8926;49.720;6.576;2023-02-18T14:37:39;100401.97;;;11.48;74.68
17615;BME280;8926;49.720;6.576;2023-02-18T14:42:49;100405.84;;;11.41;74.86
17615;BME280;8926;49.720;6.576;2023-02-18T14:45:33;100405.84;;;11.41;74.89
17615;BME280;8926;49.720;6.576;2023-02-18T14:51:02;100415.38;;;11.42;74.85
17615;BME280;8926;49.720;6.576;2023-02-18T14:53:28;100426.44;;;11.47;74.90
17615;BME280;8926;49.720;6.576;2023-02-18T14:55:58;100419.50;;;11.46;74.73
17615;BME280;8926;49.720;6.576;2023-02-18T14:58:36;100424.75;;;11.46;74.84
17615;BME280;8926;49.720;6.576;2023-02-18T15:01:16;100410.91;;;11.44;74.82
17615;BME280;8926;49.720;6.576;2023-02-18T15:03:42;100428.47;;;11.42;75.05
17615;BME280;8926;49.720;6.576;2023-02-18T15:06:33;100419.78;;;11.42;74.91
17615;BME280;8926;49.720;6.576;2023-02-18T15:08:59;100411.06;;;11.41;74.75
17615;BME280;8926;49.720;6.576;2023-02-18T15:11:37;100416.44;;;11.38;74.82
17615;BME280;8926;49.720;6.576;2023-02-18T15:14:09;100413.06;;;11.36;75.05